createdAt,value
2018-06-02T00:00:29.703Z,51.01
2018-06-02T00:02:58.275Z,51.37
2018-06-02T00:05:26.825Z,51.58
2018-06-02T00:07:55.379Z,52.08
2018-06-02T00:10:23.938Z,52.64
2018-06-02T00:12:52.487Z,52.93
2018-06-02T00:15:21.031Z,53.06
2018-06-02T00:17:49.586Z,53.25
2018-06-02T00:20:18.139Z,53.27
2018-06-02T00:22:46.682Z,53.18
2018-06-02T00:25:15.236Z,53.25
2018-06-02T00:27:43.779Z,53.48
2018-06-02T00:30:12.363Z,54.13
2018-06-02T00:32:40.926Z,54.84
2018-06-02T00:35:09.483Z,55.58
2018-06-02T00:37:38.069Z,55.95
2018-06-02T00:40:06.623Z,56.12
2018-06-02T00:42:35.187Z,56.63
2018-06-02T00:45:03.387Z,56.95
2018-06-02T00:47:31.952Z,57.38
2018-06-02T00:50:00.504Z,57.85
2018-06-02T00:52:29.053Z,58.04
2018-06-02T00:55:09.273Z,58.40
2018-06-02T00:57:37.876Z,58.40
2018-06-02T01:00:07.444Z,58.55
2018-06-02T01:02:35.998Z,58.75
2018-06-02T01:05:04.206Z,58.86
2018-06-02T01:07:32.789Z,59.21
2018-06-02T01:10:01.343Z,59.22
2018-06-02T01:12:29.937Z,59.37
2018-06-02T01:14:58.535Z,59.35
2018-06-02T01:17:27.127Z,59.50
2018-06-02T01:19:55.691Z,59.58
2018-06-02T01:22:24.250Z,59.80
2018-06-02T01:24:52.843Z,59.76
2018-06-02T01:27:21.407Z,59.95
2018-06-02T01:29:49.961Z,59.74
2018-06-02T01:32:18.580Z,59.59
2018-06-02T01:34:47.134Z,59.51
2018-06-02T01:37:15.744Z,59.66
2018-06-02T01:39:44.303Z,59.81
2018-06-02T01:42:12.855Z,59.89
2018-06-02T01:44:41.416Z,60.08
2018-06-02T01:47:10.000Z,59.90
2018-06-02T01:49:38.549Z,59.85
2018-06-02T01:52:07.130Z,59.88
2018-06-02T01:54:35.678Z,60.30
2018-06-02T01:57:04.303Z,60.20
2018-06-02T01:59:32.842Z,59.85
2018-06-02T02:02:01.395Z,59.79
2018-06-02T02:04:29.956Z,59.73
2018-06-02T02:06:58.525Z,59.80
2018-06-02T02:09:27.078Z,59.77
2018-06-02T02:11:55.650Z,59.81
2018-06-02T02:14:24.215Z,59.90
2018-06-02T02:16:52.770Z,60.06
2018-06-02T02:19:21.328Z,59.79
2018-06-02T02:21:49.892Z,59.52
2018-06-02T02:24:18.447Z,59.38
2018-06-02T02:26:46.995Z,59.19
2018-06-02T02:29:15.589Z,59.23
2018-06-02T02:31:44.156Z,59.00
2018-06-02T02:34:12.723Z,58.95
2018-06-02T02:36:41.284Z,58.35
2018-06-02T02:39:09.830Z,57.53
2018-06-02T02:41:38.415Z,57.46
2018-06-02T02:44:06.991Z,57.41
2018-06-02T02:46:35.592Z,57.65
2018-06-02T02:49:04.207Z,58.00
2018-06-02T02:51:32.759Z,58.39
2018-06-02T02:54:01.304Z,58.78
2018-06-02T02:56:29.873Z,58.69
2018-06-02T02:58:58.486Z,58.90
2018-06-02T03:01:27.047Z,59.05
2018-06-02T03:03:55.606Z,59.11
2018-06-02T03:06:24.168Z,59.05
2018-06-02T03:08:52.734Z,58.75
2018-06-02T03:11:21.336Z,58.54
2018-06-02T03:13:49.897Z,57.89
2018-06-02T03:16:18.462Z,57.88
2018-06-02T03:18:47.018Z,58.49
2018-06-02T03:21:15.611Z,58.44
2018-06-02T03:23:44.175Z,57.35
2018-06-02T03:26:12.727Z,57.04
2018-06-02T03:28:41.325Z,56.53
2018-06-02T03:31:10.047Z,56.06
2018-06-02T03:33:38.673Z,56.58
2018-06-02T03:36:07.234Z,56.45
2018-06-02T03:38:35.775Z,56.84
2018-06-02T03:41:04.324Z,57.26
2018-06-02T03:43:32.935Z,57.42
2018-06-02T03:46:01.498Z,55.40
2018-06-02T03:48:29.731Z,55.46
2018-06-02T03:50:58.561Z,55.91
2018-06-02T03:53:27.149Z,55.77
2018-06-02T03:55:55.706Z,55.63
2018-06-02T03:58:24.250Z,56.02
2018-06-02T04:00:52.799Z,56.19
2018-06-02T04:03:21.346Z,55.68
2018-06-02T04:05:49.904Z,55.55
2018-06-02T04:08:18.536Z,54.89
2018-06-02T04:10:47.090Z,54.95
2018-06-02T04:13:15.658Z,54.80
2018-06-02T04:15:44.210Z,54.75
2018-06-02T04:18:12.759Z,53.44
2018-06-02T04:20:41.342Z,53.32
2018-06-02T04:23:09.889Z,53.35
2018-06-02T04:25:38.451Z,52.80
2018-06-02T04:28:07.002Z,52.80
2018-06-02T04:30:35.604Z,52.47
2018-06-02T04:33:04.180Z,52.01
2018-06-02T04:35:32.744Z,52.15
2018-06-02T04:38:01.292Z,52.11
2018-06-02T04:40:29.846Z,52.22
2018-06-02T04:42:58.390Z,51.73
2018-06-02T04:45:26.944Z,51.29
2018-06-02T04:47:55.536Z,50.09
2018-06-02T04:50:24.102Z,48.83
2018-06-02T04:52:52.650Z,46.28
2018-06-02T04:55:21.201Z,44.28
2018-06-02T04:57:49.754Z,43.30
2018-06-02T05:00:18.302Z,42.66
2018-06-02T05:02:47.523Z,41.16
2018-06-02T05:05:16.077Z,40.14
2018-06-02T05:07:44.639Z,38.70
2018-06-02T05:10:13.178Z,37.71
2018-06-02T05:12:41.731Z,36.82
2018-06-02T05:15:10.381Z,36.18
2018-06-02T05:17:39.096Z,35.63
2018-06-02T05:20:07.656Z,34.76
2018-06-02T05:22:36.205Z,34.86
2018-06-02T05:25:04.786Z,34.15
2018-06-02T05:27:33.349Z,33.70
2018-06-02T05:30:01.919Z,33.24
2018-06-02T05:32:30.487Z,33.19
2018-06-02T05:34:59.039Z,33.48
2018-06-02T05:37:27.631Z,33.43
2018-06-02T05:39:56.179Z,33.62
2018-06-02T05:42:24.728Z,33.39
2018-06-02T05:44:53.286Z,33.27
2018-06-02T05:47:21.843Z,32.79
2018-06-02T05:49:50.428Z,33.09
2018-06-02T05:52:18.989Z,33.50
2018-06-02T05:54:47.587Z,33.92
2018-06-02T05:57:17.110Z,34.24
2018-06-02T05:59:45.727Z,34.81
2018-06-02T06:02:17.716Z,35.54
2018-06-02T06:04:46.197Z,36.33
2018-06-02T06:07:15.084Z,36.87
2018-06-02T06:09:43.923Z,36.94
2018-06-02T06:12:12.481Z,37.09
2018-06-02T06:14:41.035Z,37.51
2018-06-02T06:17:09.635Z,38.29
2018-06-02T06:19:38.300Z,38.25
2018-06-02T06:22:07.012Z,38.46
2018-06-02T06:24:35.574Z,38.85
2018-06-02T06:27:04.133Z,38.32
2018-06-02T06:29:32.772Z,38.35
2018-06-02T06:32:01.336Z,38.60
2018-06-02T06:34:29.887Z,39.13
2018-06-02T06:36:58.473Z,38.48
2018-06-02T06:39:27.028Z,39.12
2018-06-02T06:41:55.594Z,39.49
2018-06-02T06:44:24.187Z,39.57
2018-06-02T06:46:52.892Z,40.04
2018-06-02T06:49:22.436Z,40.00
2018-06-02T06:51:51.019Z,40.16
2018-06-02T06:54:19.575Z,40.43
2018-06-02T06:56:48.179Z,40.28
2018-06-02T06:59:16.727Z,40.20
2018-06-02T07:01:45.282Z,40.66
2018-06-02T07:04:15.112Z,40.91
2018-06-02T07:06:43.678Z,40.35
2018-06-02T07:09:12.237Z,40.49
2018-06-02T07:11:40.868Z,41.14
2018-06-02T07:14:09.462Z,40.51
2018-06-02T07:16:38.080Z,40.57
2018-06-02T07:19:07.886Z,40.21
2018-06-02T07:21:36.581Z,40.18
2018-06-02T07:24:10.685Z,40.28
2018-06-02T07:26:39.422Z,41.01
2018-06-02T07:29:07.980Z,40.25
2018-06-02T07:31:36.537Z,39.97
2018-06-02T07:34:05.092Z,40.37
2018-06-02T07:36:33.642Z,40.40
2018-06-02T07:39:02.230Z,40.26
2018-06-02T07:41:30.798Z,39.91
2018-06-02T07:43:59.344Z,39.65
2018-06-02T07:46:27.899Z,39.94
2018-06-02T07:48:56.463Z,40.27
2018-06-02T07:51:25.097Z,39.40
2018-06-02T07:53:53.395Z,39.48
2018-06-02T07:56:21.950Z,39.69
2018-06-02T07:58:50.501Z,39.77
2018-06-02T08:01:19.052Z,39.56
2018-06-02T08:03:47.664Z,39.55
2018-06-02T08:06:16.241Z,39.54
2018-06-02T08:08:44.817Z,39.97
2018-06-02T08:11:13.549Z,39.64
2018-06-02T08:13:42.099Z,39.22
2018-06-02T08:16:10.688Z,38.40
2018-06-02T08:18:39.303Z,38.07
2018-06-02T08:21:07.918Z,38.11
2018-06-02T08:23:36.483Z,37.84
2018-06-02T08:26:04.459Z,37.52
2018-06-02T08:28:33.020Z,37.65
2018-06-02T08:31:01.582Z,37.51
2018-06-02T08:33:30.209Z,37.41
2018-06-02T08:35:58.899Z,37.37
2018-06-02T08:38:27.460Z,36.87
2018-06-02T08:40:56.047Z,36.97
2018-06-02T08:43:24.644Z,36.81
2018-06-02T08:45:53.207Z,35.76
2018-06-02T08:48:21.761Z,35.09
2018-06-02T08:50:50.311Z,34.77
2018-06-02T08:53:18.854Z,34.74
2018-06-02T08:55:47.404Z,34.23
2018-06-02T08:58:15.976Z,34.34
2018-06-02T09:00:44.530Z,33.92
2018-06-02T09:03:13.131Z,34.20
2018-06-02T09:05:41.680Z,33.65
2018-06-02T09:08:10.235Z,33.17
2018-06-02T09:10:38.787Z,33.19
2018-06-02T09:13:07.332Z,33.44
2018-06-02T09:15:35.919Z,34.13
2018-06-02T09:18:04.680Z,33.96
2018-06-02T09:20:33.247Z,33.76
2018-06-02T09:23:01.796Z,34.05
2018-06-02T09:25:30.375Z,33.14
2018-06-02T09:27:58.988Z,32.40
2018-06-02T09:30:27.758Z,32.17
2018-06-02T09:32:56.067Z,31.97
2018-06-02T09:35:24.674Z,32.10
2018-06-02T09:37:53.225Z,31.97
2018-06-02T09:40:21.784Z,31.96
2018-06-02T09:42:50.388Z,29.53
2018-06-02T09:45:18.959Z,29.60
2018-06-02T09:47:47.178Z,30.10
2018-06-02T09:50:15.930Z,30.59
2018-06-02T09:52:44.535Z,30.86
2018-06-02T09:55:13.091Z,30.72
2018-06-02T09:57:41.728Z,29.79
2018-06-02T10:00:10.496Z,29.18
2018-06-02T10:02:39.087Z,28.70
2018-06-02T10:05:07.677Z,28.99
2018-06-02T10:07:36.232Z,29.43
2018-06-02T10:10:04.103Z,29.04
2018-06-02T10:12:32.669Z,27.88
2018-06-02T10:15:01.291Z,27.21
2018-06-02T10:17:29.843Z,25.75
2018-06-02T10:19:58.406Z,25.56
2018-06-02T10:22:27.005Z,25.30
2018-06-02T10:24:55.559Z,25.65
2018-06-02T10:27:24.122Z,25.16
2018-06-02T10:29:52.680Z,25.46
2018-06-02T10:32:21.243Z,25.63
2018-06-02T10:34:49.802Z,26.45
2018-06-02T10:37:18.357Z,27.34
2018-06-02T10:39:46.914Z,26.66
2018-06-02T10:42:15.471Z,27.17
2018-06-02T10:44:44.119Z,27.24
2018-06-02T10:47:12.680Z,27.20
2018-06-02T10:49:41.233Z,26.68
2018-06-02T10:52:10.605Z,27.07
2018-06-02T10:54:39.182Z,27.34
2018-06-02T10:57:08.029Z,26.49
2018-06-02T10:59:36.591Z,26.94
2018-06-02T11:02:05.140Z,26.25
2018-06-02T11:04:33.721Z,25.95
2018-06-02T11:07:02.271Z,26.26
2018-06-02T11:09:30.476Z,25.82
2018-06-02T11:11:59.035Z,26.36
2018-06-02T11:14:29.318Z,26.30
2018-06-02T11:16:58.038Z,26.07
2018-06-02T11:19:26.640Z,26.18
2018-06-02T11:21:55.421Z,26.46
2018-06-02T11:24:23.999Z,26.70
2018-06-02T11:26:52.591Z,26.30
2018-06-02T11:29:21.144Z,25.87
2018-06-02T11:31:49.704Z,25.92
2018-06-02T11:34:18.261Z,25.69
2018-06-02T11:36:46.832Z,25.74
2018-06-02T11:39:15.410Z,25.42
2018-06-02T11:41:43.977Z,25.60
2018-06-02T11:44:12.594Z,25.37
2018-06-02T11:46:41.290Z,25.11
2018-06-02T11:49:09.859Z,24.71
2018-06-02T11:51:38.418Z,24.83
2018-06-02T11:54:06.987Z,24.80
2018-06-02T11:56:35.536Z,24.70
2018-06-02T11:59:04.108Z,25.50
2018-06-02T12:01:33.027Z,25.43
2018-06-02T12:04:01.699Z,25.20
2018-06-02T12:06:30.255Z,25.26
2018-06-02T12:08:58.804Z,25.04
2018-06-02T12:11:27.934Z,25.19
2018-06-02T12:13:56.573Z,25.54
2018-06-02T12:16:25.303Z,25.46
2018-06-02T12:18:53.863Z,24.91
2018-06-02T12:21:22.436Z,24.92
2018-06-02T12:23:50.986Z,24.89
2018-06-02T12:26:19.551Z,24.98
2018-06-02T12:28:48.121Z,25.04
2018-06-02T12:31:16.659Z,24.77
2018-06-02T12:33:46.408Z,24.46
2018-06-02T12:36:19.327Z,24.85
2018-06-02T12:38:47.887Z,25.18
2018-06-02T12:41:24.352Z,24.98
2018-06-02T12:43:52.912Z,24.79
2018-06-02T12:46:21.466Z,24.87
2018-06-02T12:48:50.026Z,25.33
2018-06-02T12:51:18.584Z,24.90
2018-06-02T12:53:47.165Z,25.07
2018-06-02T12:56:15.759Z,25.28
2018-06-02T12:58:44.358Z,25.17
2018-06-02T13:01:12.958Z,25.60
2018-06-02T13:03:41.552Z,26.38
2018-06-02T13:06:10.153Z,26.95
2018-06-02T13:08:38.763Z,27.69
2018-06-02T13:11:07.326Z,27.83
2018-06-02T13:13:35.881Z,28.03
2018-06-02T13:16:04.443Z,27.90
2018-06-02T13:18:32.996Z,27.68
2018-06-02T13:21:01.571Z,27.90
2018-06-02T13:23:30.171Z,27.52
2018-06-02T13:25:58.724Z,27.85
2018-06-02T13:28:27.277Z,28.23
2018-06-02T13:30:55.867Z,29.12
2018-06-02T13:33:24.457Z,29.32
2018-06-02T13:35:53.008Z,29.88
2018-06-02T13:38:21.554Z,30.58
2018-06-02T13:40:50.142Z,31.40
2018-06-02T13:43:18.720Z,32.13
2018-06-02T13:45:47.320Z,32.78
2018-06-02T13:48:15.872Z,33.41
2018-06-02T13:50:44.471Z,33.83
2018-06-02T13:53:12.696Z,33.49
2018-06-02T13:55:41.248Z,32.00
2018-06-02T13:58:09.814Z,30.31
2018-06-02T14:00:38.372Z,29.99
2018-06-02T14:03:06.967Z,30.72
2018-06-02T14:05:35.511Z,31.67
2018-06-02T14:08:04.080Z,32.44
2018-06-02T14:10:32.667Z,32.67
2018-06-02T14:13:01.230Z,31.65
2018-06-02T14:15:29.803Z,31.68
2018-06-02T14:17:58.367Z,31.19
2018-06-02T14:20:26.588Z,30.64
2018-06-02T14:22:55.181Z,30.01
2018-06-02T14:25:23.772Z,29.61
2018-06-02T14:27:52.481Z,30.00
2018-06-02T14:30:21.026Z,30.66
2018-06-02T14:32:49.574Z,31.28
2018-06-02T14:35:18.167Z,32.05
2018-06-02T14:37:46.719Z,33.07
2018-06-02T14:40:15.275Z,33.92
2018-06-02T14:42:43.875Z,34.29
2018-06-02T14:45:12.526Z,34.62
2018-06-02T14:47:41.084Z,35.22
2018-06-02T14:50:09.634Z,35.83
2018-06-02T14:52:39.182Z,35.72
2018-06-02T14:55:07.802Z,35.78
2018-06-02T14:57:36.515Z,35.48
2018-06-02T15:00:06.603Z,35.69
2018-06-02T15:02:35.307Z,35.62
2018-06-02T15:05:03.939Z,35.60
2018-06-02T15:07:32.497Z,35.65
2018-06-02T15:10:01.055Z,36.00
2018-06-02T15:12:29.614Z,36.45
2018-06-02T15:14:58.177Z,37.03
2018-06-02T15:17:26.793Z,37.72
2018-06-02T15:19:55.421Z,37.87
2018-06-02T15:22:23.999Z,38.60
2018-06-02T15:24:52.561Z,39.26
2018-06-02T15:27:21.141Z,39.42
2018-06-02T15:29:49.728Z,39.46
2018-06-02T15:32:18.285Z,39.50
2018-06-02T15:34:46.976Z,39.57
2018-06-02T15:37:16.582Z,39.77
2018-06-02T15:39:45.228Z,39.27
2018-06-02T15:42:14.963Z,39.59
2018-06-02T15:44:43.769Z,39.91
2018-06-02T15:47:13.318Z,40.40
2018-06-02T15:49:41.947Z,44.76
2018-06-02T15:52:10.513Z,49.40
2018-06-02T15:54:39.099Z,52.74
2018-06-02T15:57:07.700Z,54.79
2018-06-02T15:59:36.289Z,54.86
2018-06-02T16:02:04.487Z,55.89
2018-06-02T16:04:33.038Z,56.10
2018-06-02T16:07:01.598Z,55.80
2018-06-02T16:09:30.154Z,55.96
2018-06-02T16:11:58.378Z,56.29
2018-06-02T16:14:26.943Z,56.18
2018-06-02T16:16:55.499Z,54.72
2018-06-02T16:19:24.051Z,53.67
2018-06-02T16:21:52.635Z,53.62
2018-06-02T16:24:21.377Z,53.18
2018-06-02T16:26:50.419Z,53.23
2018-06-02T16:29:19.045Z,53.63
2018-06-02T16:31:47.598Z,52.75
2018-06-02T16:34:16.162Z,51.26
2018-06-02T16:36:44.503Z,49.41
2018-06-02T16:39:13.056Z,49.24
2018-06-02T16:41:41.615Z,49.13
2018-06-02T16:44:10.037Z,49.04
2018-06-02T16:46:38.653Z,49.17
2018-06-02T16:49:07.212Z,48.46
2018-06-02T16:51:35.769Z,47.83
2018-06-02T16:54:04.414Z,47.65
2018-06-02T16:56:32.959Z,48.09
2018-06-02T16:59:01.505Z,48.44
2018-06-02T17:01:30.102Z,48.16
2018-06-02T17:03:58.669Z,48.16
2018-06-02T17:06:27.278Z,49.08
2018-06-02T17:08:55.827Z,49.03
2018-06-02T17:11:24.391Z,50.03
2018-06-02T17:13:52.991Z,48.95
2018-06-02T17:16:21.578Z,48.97
2018-06-02T17:18:50.149Z,48.59
2018-06-02T17:21:18.732Z,49.40
2018-06-02T17:23:47.315Z,48.71
2018-06-02T17:26:16.816Z,49.16
2018-06-02T17:28:45.370Z,48.61
2018-06-02T17:31:13.939Z,48.42
2018-06-02T17:33:42.712Z,47.56
2018-06-02T17:36:11.289Z,47.42
2018-06-02T17:38:39.839Z,46.59
2018-06-02T17:41:07.707Z,46.69
2018-06-02T17:43:36.276Z,47.20
2018-06-02T17:46:05.785Z,47.42
2018-06-02T17:48:34.393Z,47.65
2018-06-02T17:51:02.967Z,47.90
2018-06-02T17:53:31.535Z,47.74
2018-06-02T17:56:00.113Z,48.03
2018-06-02T17:58:28.716Z,48.24
2018-06-02T18:00:57.289Z,48.28
2018-06-02T18:03:25.909Z,48.29
2018-06-02T18:05:54.525Z,48.46
2018-06-02T18:08:23.086Z,48.79
2018-06-02T18:10:51.642Z,48.37
2018-06-02T18:13:20.229Z,48.69
2018-06-02T18:15:48.568Z,48.78
2018-06-02T18:18:17.180Z,48.90
2018-06-02T18:20:45.745Z,48.67
2018-06-02T18:23:14.333Z,48.77
2018-06-02T18:25:42.923Z,48.85
2018-06-02T18:28:11.491Z,49.05
2018-06-02T18:30:40.077Z,49.36
2018-06-02T18:33:08.635Z,49.38
2018-06-02T18:35:37.204Z,49.49
2018-06-02T18:38:05.985Z,49.43
2018-06-02T18:40:34.565Z,49.45
2018-06-02T18:43:03.151Z,49.57
2018-06-02T18:45:31.719Z,49.79
2018-06-02T18:48:00.275Z,50.16
2018-06-02T18:50:28.833Z,50.33
2018-06-02T18:52:57.440Z,50.58
2018-06-02T18:55:26.010Z,50.64
2018-06-02T18:57:54.562Z,50.26
2018-06-02T19:00:23.128Z,50.07
2018-06-02T19:02:51.699Z,50.83
2018-06-02T19:05:20.265Z,52.80
2018-06-02T19:07:48.824Z,53.38
2018-06-02T19:10:17.401Z,54.39
2018-06-02T19:12:45.966Z,56.55
2018-06-02T19:15:14.566Z,57.31
2018-06-02T19:17:43.360Z,59.20
2018-06-02T19:20:11.927Z,60.06
2018-06-02T19:22:40.537Z,60.74
2018-06-02T19:25:09.275Z,61.30
2018-06-02T19:27:37.844Z,61.89
2018-06-02T19:30:06.697Z,61.90
2018-06-02T19:32:35.326Z,61.76
2018-06-02T19:35:03.888Z,61.77
2018-06-02T19:37:32.449Z,61.32
2018-06-02T19:40:02.082Z,61.05
2018-06-02T19:42:30.652Z,61.19
2018-06-02T19:44:59.212Z,61.38
2018-06-02T19:47:27.785Z,61.34
2018-06-02T19:49:56.362Z,61.18
2018-06-02T19:52:25.713Z,61.07
2018-06-02T19:54:54.275Z,60.67
2018-06-02T19:57:22.844Z,60.33
2018-06-02T20:00:28.336Z,60.32
2018-06-02T20:02:57.108Z,60.75
2018-06-02T20:05:25.899Z,61.58
2018-06-02T20:07:54.718Z,60.74
2018-06-02T20:10:23.669Z,60.86
2018-06-02T20:12:52.436Z,61.04
2018-06-02T20:15:21.243Z,61.18
2018-06-02T20:17:50.042Z,60.69
2018-06-02T20:20:18.826Z,61.37
2018-06-02T20:22:47.877Z,60.84
2018-06-02T20:25:16.637Z,61.23
2018-06-02T20:27:45.431Z,60.69
2018-06-02T20:30:14.247Z,60.96
2018-06-02T20:32:43.828Z,61.26
2018-06-02T20:35:12.606Z,61.13
2018-06-02T20:37:41.411Z,61.89
2018-06-02T20:40:10.198Z,61.72
2018-06-02T20:42:38.998Z,62.23
2018-06-02T20:45:07.736Z,62.89
2018-06-02T20:47:36.575Z,62.42
2018-06-02T20:50:05.415Z,63.55
2018-06-02T20:52:34.196Z,63.81
2018-06-02T20:55:02.986Z,62.80
2018-06-02T20:57:31.808Z,63.31
2018-06-02T21:00:00.576Z,63.06
2018-06-02T21:02:29.331Z,64.00
2018-06-02T21:04:58.129Z,63.97
2018-06-02T21:07:26.882Z,63.67
2018-06-02T21:09:55.709Z,63.97
2018-06-02T21:12:24.521Z,63.32
2018-06-02T21:14:53.311Z,64.04
2018-06-02T21:17:22.115Z,64.24
2018-06-02T21:19:50.935Z,63.20
2018-06-02T21:22:19.703Z,63.07
2018-06-02T21:24:48.487Z,62.90
2018-06-02T21:27:18.244Z,62.92
2018-06-02T21:29:47.455Z,63.33
2018-06-02T21:32:16.363Z,62.85
2018-06-02T21:34:45.787Z,62.82
2018-06-02T21:37:14.588Z,63.10
2018-06-02T21:39:43.463Z,63.52
2018-06-02T21:42:12.403Z,62.64
2018-06-02T21:44:41.220Z,62.92
2018-06-02T21:47:10.054Z,62.36
2018-06-02T21:49:38.809Z,63.07
2018-06-02T21:52:07.571Z,63.44
2018-06-02T21:54:36.357Z,62.72
2018-06-02T21:57:05.239Z,63.47
2018-06-02T21:59:34.120Z,62.53
2018-06-02T22:02:02.895Z,62.78
2018-06-02T22:04:32.717Z,63.27
2018-06-02T22:07:01.692Z,62.56
2018-06-02T22:09:30.614Z,63.20
2018-06-02T22:11:59.563Z,63.69
2018-06-02T22:14:28.592Z,62.81
2018-06-02T22:16:58.059Z,63.36
2018-06-02T22:19:26.955Z,63.46
2018-06-02T22:21:55.790Z,64.03
2018-06-02T22:24:24.602Z,63.46
2018-06-02T22:26:53.485Z,63.64
2018-06-02T22:29:22.362Z,63.86
2018-06-02T22:31:51.139Z,64.20
2018-06-02T22:34:19.944Z,63.80
2018-06-02T22:36:48.838Z,63.74
2018-06-02T22:39:17.696Z,64.15
2018-06-02T22:41:46.525Z,64.19
2018-06-02T22:44:15.380Z,63.45
2018-06-02T22:46:44.398Z,63.66
2018-06-02T22:49:13.247Z,63.53
2018-06-02T22:52:13.970Z,63.72
2018-06-02T22:54:42.998Z,63.87
2018-06-02T22:57:12.032Z,63.91
2018-06-02T22:59:40.945Z,62.99
2018-06-02T23:02:09.750Z,63.42
2018-06-02T23:04:38.765Z,63.72
2018-06-02T23:07:07.723Z,63.77
2018-06-02T23:09:36.656Z,64.15
2018-06-02T23:12:05.480Z,64.24
2018-06-02T23:14:34.266Z,63.93
2018-06-02T23:17:03.098Z,63.32
2018-06-02T23:19:31.955Z,64.46
2018-06-02T23:22:00.890Z,64.30
2018-06-02T23:24:29.679Z,63.96
2018-06-02T23:26:58.467Z,64.14
2018-06-02T23:29:27.691Z,64.22
2018-06-02T23:31:56.454Z,64.88
2018-06-02T23:34:25.286Z,64.37
2018-06-02T23:36:54.051Z,64.52
2018-06-02T23:39:22.842Z,64.26
2018-06-02T23:41:51.651Z,64.92
2018-06-02T23:44:20.442Z,65.60
2018-06-02T23:46:49.226Z,65.03
2018-06-02T23:49:18.046Z,65.27
2018-06-02T23:51:46.839Z,66.07
2018-06-02T23:54:15.918Z,66.56
2018-06-02T23:56:44.721Z,65.75
2018-06-02T23:59:13.876Z,66.80
